createdAt,value
2017-07-08T00:01:33.142Z,100803.92
2017-07-08T00:04:00.543Z,100801.13
2017-07-08T00:06:27.938Z,100804.92
2017-07-08T00:08:55.353Z,100811.41
2017-07-08T00:11:22.757Z,100808.84
2017-07-08T00:13:50.164Z,100813.16
2017-07-08T00:16:17.560Z,100817.57
2017-07-08T00:18:44.973Z,100806.09
2017-07-08T00:21:12.375Z,100810.09
2017-07-08T00:23:39.788Z,100803.98
2017-07-08T00:26:07.192Z,100808.41
2017-07-08T00:28:34.603Z,100808.55
2017-07-08T00:31:02.031Z,100814.98
2017-07-08T00:33:29.675Z,100813.53
2017-07-08T00:35:57.092Z,100810.63
2017-07-08T00:38:24.501Z,100815.20
2017-07-08T00:40:51.903Z,100814.27
2017-07-08T00:43:19.304Z,100814.27
2017-07-08T00:45:46.699Z,100818.45
2017-07-08T00:48:14.419Z,100819.08
2017-07-08T00:50:41.835Z,100811.23
2017-07-08T00:53:09.245Z,100805.75
2017-07-08T00:55:36.652Z,100813.89
2017-07-08T00:58:04.052Z,100807.39
2017-07-08T01:00:31.460Z,100807.29
2017-07-08T01:02:58.862Z,100805.30
2017-07-08T01:05:26.259Z,100805.07
2017-07-08T01:07:53.667Z,100808.14
2017-07-08T01:10:21.068Z,100805.63
2017-07-08T01:12:48.472Z,100808.38
2017-07-08T01:15:15.876Z,100810.87
2017-07-08T01:17:43.589Z,100820.05
2017-07-08T01:20:10.987Z,100820.31
2017-07-08T01:22:38.382Z,100818.81
2017-07-08T01:25:05.785Z,100825.04
2017-07-08T01:27:33.197Z,100822.70
2017-07-08T01:30:00.609Z,100822.64
2017-07-08T01:32:28.000Z,100824.61
2017-07-08T01:34:55.617Z,100812.42
2017-07-08T01:37:23.011Z,100809.98
2017-07-08T01:39:50.411Z,100809.28
2017-07-08T01:42:17.808Z,100808.36
2017-07-08T01:44:45.508Z,100810.59
2017-07-08T01:47:12.907Z,100814.94
2017-07-08T01:49:40.317Z,100814.77
2017-07-08T01:52:07.716Z,100823.79
2017-07-08T01:54:35.120Z,100827.89
2017-07-08T01:57:02.548Z,100829.59
2017-07-08T01:59:29.951Z,100834.31
2017-07-08T02:01:57.388Z,100835.66
2017-07-08T02:04:24.791Z,100832.82
2017-07-08T02:06:52.189Z,100824.39
2017-07-08T02:09:19.600Z,100815.38
2017-07-08T02:11:47.006Z,100822.78
2017-07-08T02:14:14.407Z,100823.62
2017-07-08T02:16:41.803Z,100817.16
2017-07-08T02:19:09.216Z,100821.78
2017-07-08T02:21:36.609Z,100827.03
2017-07-08T02:24:04.044Z,100825.43
2017-07-08T02:26:31.436Z,100826.93
2017-07-08T02:28:58.855Z,100828.30
2017-07-08T02:31:26.258Z,100826.69
2017-07-08T02:33:53.655Z,100829.30
2017-07-08T02:36:21.060Z,100831.50
2017-07-08T02:38:48.460Z,100834.84
2017-07-08T02:41:15.865Z,100837.79
2017-07-08T02:43:43.263Z,100833.16
2017-07-08T02:46:10.663Z,100832.86
2017-07-08T02:48:38.070Z,100832.58
2017-07-08T02:51:05.474Z,100825.53
2017-07-08T02:53:32.871Z,100831.91
2017-07-08T02:56:00.283Z,100841.42
2017-07-08T02:58:27.695Z,100847.13
2017-07-08T03:00:55.327Z,100843.36
2017-07-08T03:03:22.723Z,100848.08
2017-07-08T03:05:50.139Z,100845.45
2017-07-08T03:08:17.542Z,100838.89
2017-07-08T03:10:44.939Z,100836.87
2017-07-08T03:13:12.338Z,100833.78
2017-07-08T03:15:39.747Z,100827.89
2017-07-08T03:18:07.145Z,100829.82
2017-07-08T03:20:34.547Z,100826.52
2017-07-08T03:23:01.949Z,100821.91
2017-07-08T03:25:29.347Z,100828.39
2017-07-08T03:27:56.752Z,100835.91
2017-07-08T03:30:24.159Z,100839.16
2017-07-08T03:32:51.555Z,100843.41
2017-07-08T03:35:18.955Z,100844.20
2017-07-08T03:37:46.355Z,100851.65
2017-07-08T03:40:13.764Z,100845.34
2017-07-08T03:42:41.159Z,100858.44
2017-07-08T03:45:08.828Z,100852.78
2017-07-08T03:47:36.227Z,100848.96
2017-07-08T03:50:03.622Z,100847.85
2017-07-08T03:52:31.046Z,100854.04
2017-07-08T03:54:58.439Z,100842.19
2017-07-08T03:57:25.854Z,100849.23
2017-07-08T03:59:53.252Z,100849.88
2017-07-08T04:02:20.663Z,100854.92
2017-07-08T04:04:48.061Z,100857.75
2017-07-08T04:07:15.464Z,100860.01
2017-07-08T04:09:42.875Z,100856.97
2017-07-08T04:12:10.276Z,100852.61
2017-07-08T04:14:37.682Z,100853.39
2017-07-08T04:17:05.092Z,100852.64
2017-07-08T04:19:32.493Z,100854.13
2017-07-08T04:21:59.899Z,100853.14
2017-07-08T04:24:27.307Z,100853.45
2017-07-08T04:26:54.713Z,100849.05
2017-07-08T04:29:22.119Z,100857.03
2017-07-08T04:31:49.527Z,100846.58
2017-07-08T04:34:16.929Z,100850.94
2017-07-08T04:36:44.364Z,100849.50
2017-07-08T04:39:11.759Z,100850.72
2017-07-08T04:41:39.176Z,100848.06
2017-07-08T04:44:06.636Z,100845.67
2017-07-08T04:46:33.983Z,100842.59
2017-07-08T04:49:01.383Z,100846.75
2017-07-08T04:51:28.787Z,100848.42
2017-07-08T04:53:56.191Z,100850.30
2017-07-08T04:56:23.611Z,100852.88
2017-07-08T04:58:51.005Z,100850.21
2017-07-08T05:01:18.411Z,100846.66
2017-07-08T05:03:45.815Z,100854.90
2017-07-08T05:06:13.219Z,100847.69
2017-07-08T05:08:40.630Z,100849.36
2017-07-08T05:11:08.032Z,100855.91
2017-07-08T05:13:35.440Z,100857.23
2017-07-08T05:16:02.845Z,100865.56
2017-07-08T05:18:30.252Z,100865.58
2017-07-08T05:20:57.651Z,100864.70
2017-07-08T05:23:25.059Z,100858.55
2017-07-08T05:25:52.460Z,100870.53
2017-07-08T05:28:19.868Z,100864.28
2017-07-08T05:30:47.271Z,100859.28
2017-07-08T05:33:14.675Z,100864.88
2017-07-08T05:35:42.079Z,100871.27
2017-07-08T05:38:09.479Z,100863.33
2017-07-08T05:40:36.875Z,100870.45
2017-07-08T05:43:04.291Z,100872.30
2017-07-08T05:45:31.720Z,100881.11
2017-07-08T05:47:59.095Z,100876.14
2017-07-08T05:50:26.495Z,100882.17
2017-07-08T05:52:53.935Z,100878.72
2017-07-08T05:55:21.334Z,100888.59
2017-07-08T05:57:48.745Z,100892.50
2017-07-08T06:00:16.139Z,100885.05
2017-07-08T06:02:43.572Z,100890.69
2017-07-08T06:05:10.967Z,100886.27
2017-07-08T06:07:38.371Z,100887.19
2017-07-08T06:10:05.771Z,100889.17
2017-07-08T06:12:33.174Z,100896.21
2017-07-08T06:15:00.575Z,100897.60
2017-07-08T06:17:27.980Z,100897.50
2017-07-08T06:19:55.391Z,100893.23
2017-07-08T06:22:22.787Z,100904.20
2017-07-08T06:24:50.242Z,100895.48
2017-07-08T06:27:17.589Z,100901.42
2017-07-08T06:32:43.167Z,100903.84
2017-07-08T06:35:10.572Z,100905.33
2017-07-08T06:37:42.997Z,100903.77
2017-07-08T06:40:10.398Z,100905.30
2017-07-08T06:42:37.800Z,100908.41
2017-07-08T06:45:05.207Z,100902.55
2017-07-08T06:47:32.607Z,100912.44
2017-07-08T06:50:00.795Z,100911.08
2017-07-08T06:52:28.228Z,100924.78
2017-07-08T06:54:55.707Z,100926.47
2017-07-08T06:57:23.104Z,100928.25
2017-07-08T06:59:50.511Z,100922.01
2017-07-08T07:02:17.907Z,100918.26
2017-07-08T07:04:45.312Z,100920.02
2017-07-08T07:07:12.855Z,100910.75
2017-07-08T07:09:40.274Z,100909.64
2017-07-08T07:12:08.025Z,100912.27
2017-07-08T07:14:35.709Z,100911.13
2017-07-08T07:17:03.108Z,100907.98
2017-07-08T07:19:30.516Z,100918.77
2017-07-08T07:21:57.916Z,100923.02
2017-07-08T07:24:25.328Z,100922.55
2017-07-08T07:26:52.737Z,100922.72
2017-07-08T07:29:20.145Z,100926.44
2017-07-08T07:31:47.546Z,100931.34
2017-07-08T07:34:14.951Z,100921.32
2017-07-08T07:36:42.351Z,100924.28
2017-07-08T07:39:09.775Z,100921.78
2017-07-08T07:41:37.171Z,100932.98
2017-07-08T07:44:04.593Z,100935.20
2017-07-08T07:46:31.991Z,100936.45
2017-07-08T07:48:59.603Z,100944.18
2017-07-08T07:51:27.006Z,100946.70
2017-07-08T07:53:54.399Z,100948.20
2017-07-08T07:56:21.799Z,100950.56
2017-07-08T07:58:49.200Z,100953.77
2017-07-08T08:01:16.607Z,100951.83
2017-07-08T08:06:17.941Z,100952.50
2017-07-08T08:08:45.336Z,100951.81
2017-07-08T08:11:12.739Z,100946.44
2017-07-08T08:13:40.136Z,100954.66
2017-07-08T08:16:07.539Z,100955.69
2017-07-08T08:18:34.935Z,100949.31
2017-07-08T08:21:02.348Z,100947.08
2017-07-08T08:23:29.746Z,100945.55
2017-07-08T08:25:57.144Z,100952.66
2017-07-08T08:28:24.559Z,100956.10
2017-07-08T08:30:51.973Z,100953.68
2017-07-08T08:33:19.372Z,100946.28
2017-07-08T08:35:46.776Z,100947.53
2017-07-08T08:38:14.619Z,100948.67
2017-07-08T08:40:42.509Z,100948.48
2017-07-08T08:43:10.354Z,100941.35
2017-07-08T08:45:38.151Z,100944.42
2017-07-08T08:48:06.036Z,100941.50
2017-07-08T08:50:33.732Z,100947.39
2017-07-08T08:53:01.135Z,100942.23
2017-07-08T08:55:28.553Z,100945.59
2017-07-08T08:57:55.939Z,100953.98
2017-07-08T09:00:23.371Z,100944.53
2017-07-08T09:02:50.766Z,100942.02
2017-07-08T09:05:18.182Z,100937.30
2017-07-08T09:07:45.594Z,100941.67
2017-07-08T09:10:12.987Z,100939.23
2017-07-08T09:12:40.395Z,100930.32
2017-07-08T09:15:07.791Z,100935.13
2017-07-08T09:17:35.191Z,100929.91
2017-07-08T09:20:02.588Z,100940.01
2017-07-08T09:22:29.982Z,100928.87
2017-07-08T09:24:57.379Z,100941.05
2017-07-08T09:27:24.778Z,100936.40
2017-07-08T09:29:52.176Z,100933.89
2017-07-08T09:32:19.578Z,100939.53
2017-07-08T09:34:51.135Z,100937.88
2017-07-08T09:37:18.527Z,100943.90
2017-07-08T09:39:45.915Z,100945.98
2017-07-08T09:42:13.523Z,100941.46
2017-07-08T09:44:40.941Z,100943.27
2017-07-08T09:47:08.556Z,100942.55
2017-07-08T09:49:35.958Z,100941.91
2017-07-08T09:52:03.354Z,100943.14
2017-07-08T09:54:30.782Z,100948.20
2017-07-08T09:56:58.192Z,100950.47
2017-07-08T09:59:25.651Z,100948.39
2017-07-08T10:01:53.056Z,100944.02
2017-07-08T10:04:20.452Z,100941.16
2017-07-08T10:06:47.844Z,100947.61
2017-07-08T10:09:15.239Z,100947.19
2017-07-08T10:11:42.631Z,100949.67
2017-07-08T10:14:10.028Z,100953.90
2017-07-08T10:16:37.423Z,100956.56
2017-07-08T10:19:04.823Z,100962.66
2017-07-08T10:21:32.211Z,100957.36
2017-07-08T10:23:59.829Z,100959.44
2017-07-08T10:26:27.220Z,100968.34
2017-07-08T10:28:54.615Z,100971.20
2017-07-08T10:31:22.010Z,100965.34
2017-07-08T10:33:49.421Z,100956.22
2017-07-08T10:36:16.816Z,100955.75
2017-07-08T10:38:44.220Z,100955.03
2017-07-08T10:41:11.820Z,100954.95
2017-07-08T10:43:39.219Z,100957.34
2017-07-08T10:46:06.607Z,100959.25
2017-07-08T10:48:34.008Z,100962.58
2017-07-08T10:51:01.403Z,100950.46
2017-07-08T10:53:28.803Z,100958.14
2017-07-08T10:55:56.195Z,100961.53
2017-07-08T10:58:23.592Z,100946.51
2017-07-08T11:00:50.978Z,100948.73
2017-07-08T11:03:18.687Z,100953.00
2017-07-08T11:05:46.095Z,100958.09
2017-07-08T11:08:13.496Z,100965.61
2017-07-08T11:10:40.895Z,100959.55
2017-07-08T11:13:08.292Z,100952.88
2017-07-08T11:15:35.685Z,100948.50
2017-07-08T11:18:03.083Z,100955.94
2017-07-08T11:20:30.481Z,100949.44
2017-07-08T11:22:57.870Z,100943.21
2017-07-08T11:25:25.272Z,100940.12
2017-07-08T11:27:52.668Z,100941.77
2017-07-08T11:30:20.063Z,100935.55
2017-07-08T11:32:47.759Z,100938.86
2017-07-08T11:35:15.159Z,100932.92
2017-07-08T11:37:42.551Z,100932.89
2017-07-08T11:40:09.955Z,100931.14
2017-07-08T11:42:37.339Z,100933.94
2017-07-08T11:45:04.850Z,100935.19
2017-07-08T11:47:32.231Z,100937.58
2017-07-08T11:50:01.069Z,100939.32
2017-07-08T11:52:28.465Z,100940.38
2017-07-08T11:54:55.853Z,100944.61
2017-07-08T11:57:23.247Z,100943.98
2017-07-08T11:59:50.645Z,100938.84
2017-07-08T12:02:18.039Z,100944.11
2017-07-08T12:04:45.449Z,100940.20
2017-07-08T12:07:12.844Z,100949.64
2017-07-08T12:09:40.239Z,100944.77
2017-07-08T12:12:07.630Z,100941.90
2017-07-08T12:14:35.039Z,100944.88
2017-07-08T12:17:02.432Z,100940.06
2017-07-08T12:19:29.828Z,100939.48
2017-07-08T12:21:57.229Z,100937.59
2017-07-08T12:24:24.646Z,100940.20
2017-07-08T12:26:52.040Z,100950.47
2017-07-08T12:29:19.428Z,100957.20
2017-07-08T12:31:46.850Z,100964.64
2017-07-08T12:34:14.231Z,100970.72
2017-07-08T12:36:41.631Z,100981.13
2017-07-08T12:39:09.018Z,100977.39
2017-07-08T12:41:36.435Z,100976.08
2017-07-08T12:44:03.834Z,100981.08
2017-07-08T12:46:31.232Z,100981.70
2017-07-08T12:48:58.632Z,100976.44
2017-07-08T12:51:26.039Z,100986.20
2017-07-08T12:53:53.433Z,100983.51
2017-07-08T12:56:20.832Z,100982.58
2017-07-08T12:58:48.222Z,100996.84
2017-07-08T13:01:15.630Z,100985.90
2017-07-08T13:03:43.016Z,100987.70
2017-07-08T13:06:10.463Z,100991.89
2017-07-08T13:08:38.072Z,101000.91
2017-07-08T13:11:05.464Z,100996.93
2017-07-08T13:13:33.649Z,101001.05
2017-07-08T13:16:01.285Z,100998.17
2017-07-08T13:18:28.687Z,101008.53
2017-07-08T13:20:56.101Z,101006.78
2017-07-08T13:23:23.502Z,101014.00
2017-07-08T13:25:50.901Z,101014.09
2017-07-08T13:28:18.292Z,101013.39
2017-07-08T13:30:45.699Z,101019.56
2017-07-08T13:33:13.104Z,101017.09
2017-07-08T13:35:40.512Z,101031.53
2017-07-08T13:38:07.911Z,101031.97
2017-07-08T13:40:35.335Z,101035.02
2017-07-08T13:43:02.738Z,101033.48
2017-07-08T13:45:30.154Z,101031.21
2017-07-08T13:47:57.559Z,101033.95
2017-07-08T13:50:24.980Z,101040.50
2017-07-08T13:52:52.392Z,101037.05
2017-07-08T13:55:19.788Z,101041.44
2017-07-08T13:57:47.196Z,101039.34
2017-07-08T14:00:14.583Z,101043.39
2017-07-08T14:02:41.993Z,101036.27
2017-07-08T14:05:09.385Z,101040.00
2017-07-08T14:07:36.792Z,101033.13
2017-07-08T14:10:04.198Z,101034.56
2017-07-08T14:12:31.600Z,101030.16
2017-07-08T14:14:59.014Z,101026.55
2017-07-08T14:17:26.409Z,101022.42
2017-07-08T14:19:53.809Z,101022.84
2017-07-08T14:22:21.203Z,101018.41
2017-07-08T14:24:48.624Z,101011.30
2017-07-08T14:27:16.016Z,101014.44
2017-07-08T14:29:43.707Z,101012.80
2017-07-08T14:32:11.101Z,101005.48
2017-07-08T14:34:38.500Z,100995.88
2017-07-08T14:37:05.892Z,101001.09
2017-07-08T14:39:33.535Z,101008.55
2017-07-08T14:42:00.927Z,101012.45
2017-07-08T14:44:28.317Z,101003.64
2017-07-08T14:46:55.740Z,101009.17
2017-07-08T14:49:23.125Z,101008.12
2017-07-08T14:51:50.520Z,101004.69
2017-07-08T14:54:17.916Z,101004.36
2017-07-08T14:56:45.314Z,101009.92
2017-07-08T14:59:12.710Z,101005.13
2017-07-08T15:01:40.107Z,101004.11
2017-07-08T15:04:07.558Z,101005.75
2017-07-08T15:06:34.947Z,100998.28
2017-07-08T15:09:02.344Z,100991.16
2017-07-08T15:11:29.745Z,100991.16
2017-07-08T15:16:31.059Z,100981.33
2017-07-08T15:18:58.455Z,100981.75
2017-07-08T15:21:25.843Z,100978.47
2017-07-08T15:23:53.245Z,100971.40
2017-07-08T15:26:20.632Z,100970.47
2017-07-08T15:28:48.033Z,100965.28
2017-07-08T15:31:15.427Z,100972.58
2017-07-08T15:33:43.044Z,100967.34
2017-07-08T15:36:10.664Z,100975.62
2017-07-08T15:38:38.060Z,100980.28
2017-07-08T15:41:05.452Z,100976.84
2017-07-08T15:43:32.856Z,100966.63
2017-07-08T15:46:00.246Z,100972.03
2017-07-08T15:48:27.658Z,100966.11
2017-07-08T15:50:55.042Z,100974.12
2017-07-08T15:53:22.452Z,100974.86
2017-07-08T15:55:49.828Z,100971.03
2017-07-08T15:58:17.237Z,100964.53
2017-07-08T16:00:44.623Z,100963.75
2017-07-08T16:03:12.015Z,100968.98
2017-07-08T16:05:39.412Z,100954.31
2017-07-08T16:08:06.804Z,100952.58
2017-07-08T16:10:34.200Z,100957.01
2017-07-08T16:13:01.632Z,100959.45
2017-07-08T16:15:29.027Z,100954.65
2017-07-08T16:17:56.415Z,100946.72
2017-07-08T16:20:23.815Z,100936.96
2017-07-08T16:22:51.203Z,100938.56
2017-07-08T16:25:18.602Z,100944.45
2017-07-08T16:27:45.992Z,100945.65
2017-07-08T16:30:13.391Z,100945.05
2017-07-08T16:32:40.784Z,100935.53
2017-07-08T16:35:08.176Z,100943.63
2017-07-08T16:37:35.582Z,100945.30
2017-07-08T16:40:02.973Z,100942.70
2017-07-08T16:42:30.359Z,100940.77
2017-07-08T16:44:57.976Z,100938.82
2017-07-08T16:47:25.362Z,100941.33
2017-07-08T16:49:52.768Z,100929.43
2017-07-08T16:52:20.171Z,100932.13
2017-07-08T16:54:47.566Z,100935.27
2017-07-08T16:57:14.955Z,100931.80
2017-07-08T16:59:42.347Z,100927.91
2017-07-08T17:02:10.004Z,100928.87
2017-07-08T17:04:37.402Z,100934.45
2017-07-08T17:07:04.803Z,100926.36
2017-07-08T17:09:32.204Z,100922.93
2017-07-08T17:11:59.599Z,100925.94
2017-07-08T17:14:26.995Z,100931.83
2017-07-08T17:16:54.387Z,100934.35
2017-07-08T17:19:21.784Z,100935.45
2017-07-08T17:21:49.177Z,100931.81
2017-07-08T17:24:16.572Z,100927.18
2017-07-08T17:26:43.959Z,100926.95
2017-07-08T17:29:11.353Z,100925.75
2017-07-08T17:31:38.764Z,100927.30
2017-07-08T17:34:06.351Z,100930.73
2017-07-08T17:36:33.747Z,100928.39
2017-07-08T17:39:01.168Z,100931.08
2017-07-08T17:41:28.547Z,100935.97
2017-07-08T17:43:55.936Z,100936.28
2017-07-08T17:46:23.331Z,100934.69
2017-07-08T17:48:50.964Z,100938.31
2017-07-08T17:51:18.352Z,100937.22
2017-07-08T17:53:45.743Z,100937.56
2017-07-08T17:56:13.432Z,100938.30
2017-07-08T17:58:40.829Z,100939.05
2017-07-08T18:01:08.222Z,100941.34
2017-07-08T18:03:35.605Z,100949.56
2017-07-08T18:06:02.995Z,100951.58
2017-07-08T18:08:30.385Z,100956.19
2017-07-08T18:10:57.783Z,100957.45
2017-07-08T18:13:25.173Z,100959.83
2017-07-08T18:15:52.564Z,100955.78
2017-07-08T18:18:19.955Z,100957.97
2017-07-08T18:20:47.352Z,100961.16
2017-07-08T18:23:14.747Z,100963.36
2017-07-08T18:25:42.144Z,100974.37
2017-07-08T18:28:09.540Z,100970.64
2017-07-08T18:30:36.936Z,100973.09
2017-07-08T18:33:04.363Z,100977.70
2017-07-08T18:35:31.763Z,100979.20
2017-07-08T18:37:59.152Z,100978.67
2017-07-08T18:40:26.560Z,100973.96
2017-07-08T18:42:53.955Z,100982.22
2017-07-08T18:45:21.348Z,100977.81
2017-07-08T18:47:48.747Z,100991.02
2017-07-08T18:50:16.136Z,100988.62
2017-07-08T18:52:43.527Z,100991.02
2017-07-08T18:55:10.916Z,100993.59
2017-07-08T18:57:38.327Z,100989.36
2017-07-08T19:00:05.804Z,100988.09
2017-07-08T19:02:33.186Z,100986.98
2017-07-08T19:05:00.587Z,100986.42
2017-07-08T19:07:27.988Z,100983.27
2017-07-08T19:09:55.384Z,100979.31
2017-07-08T19:12:22.786Z,100980.28
2017-07-08T19:14:50.180Z,100983.80
2017-07-08T19:17:17.579Z,100977.57
2017-07-08T19:19:44.968Z,100976.57
2017-07-08T19:22:12.363Z,100981.27
2017-07-08T19:24:39.856Z,100980.22
2017-07-08T19:27:07.247Z,100983.09
2017-07-08T19:29:34.641Z,100980.48
2017-07-08T19:32:02.036Z,100975.69
2017-07-08T19:34:29.425Z,100980.15
2017-07-08T19:36:56.823Z,100969.44
2017-07-08T19:39:24.216Z,100968.78
2017-07-08T19:41:51.615Z,100966.45
2017-07-08T19:44:19.009Z,100972.11
2017-07-08T19:46:46.556Z,100974.81
2017-07-08T19:49:13.927Z,100971.80
2017-07-08T19:51:41.325Z,100975.67
2017-07-08T19:54:09.740Z,100980.83
2017-07-08T19:56:37.119Z,100979.80
2017-07-08T19:59:04.523Z,100982.30
2017-07-08T20:01:31.914Z,100989.09
2017-07-08T20:03:59.361Z,100987.80
2017-07-08T20:06:26.995Z,100988.00
2017-07-08T20:08:54.403Z,100985.39
2017-07-08T20:11:21.799Z,100990.65
2017-07-08T20:13:49.173Z,100991.36
2017-07-08T20:16:16.564Z,100991.12
2017-07-08T20:18:43.965Z,100998.55
2017-07-08T20:21:11.367Z,101002.45
2017-07-08T20:23:38.763Z,100994.26
2017-07-08T20:26:06.440Z,100986.52
2017-07-08T20:28:33.839Z,100991.05
2017-07-08T20:31:01.232Z,100991.80
2017-07-08T20:33:28.632Z,100995.86
2017-07-08T20:35:56.020Z,100994.75
2017-07-08T20:38:23.412Z,100998.80
2017-07-08T20:40:50.807Z,100990.15
2017-07-08T20:43:18.204Z,101000.18
2017-07-08T20:45:45.592Z,101003.56
2017-07-08T20:48:12.987Z,101005.06
2017-07-08T20:50:40.391Z,101004.45
2017-07-08T20:53:07.786Z,101006.41
2017-07-08T20:55:35.199Z,101010.93
2017-07-08T20:58:02.613Z,101018.41
2017-07-08T21:00:30.004Z,101015.61
2017-07-08T21:02:57.400Z,101017.09
2017-07-08T21:05:25.031Z,101014.41
2017-07-08T21:07:52.415Z,101020.37
2017-07-08T21:10:19.817Z,101024.53
2017-07-08T21:12:47.223Z,101026.27
2017-07-08T21:15:14.661Z,101026.36
2017-07-08T21:17:42.037Z,101027.64
2017-07-08T21:20:09.437Z,101031.50
2017-07-08T21:22:36.835Z,101031.67
2017-07-08T21:25:04.234Z,101039.50
2017-07-08T21:27:31.628Z,101034.93
2017-07-08T21:29:59.286Z,101036.09
2017-07-08T21:32:26.675Z,101046.38
2017-07-08T21:34:54.082Z,101048.91
2017-07-08T21:37:21.473Z,101043.72
2017-07-08T21:39:48.858Z,101046.23
2017-07-08T21:42:16.257Z,101042.70
2017-07-08T21:44:43.651Z,101044.63
2017-07-08T21:47:11.047Z,101045.05
2017-07-08T21:49:38.454Z,101047.65
2017-07-08T21:52:06.090Z,101047.82
2017-07-08T21:54:33.486Z,101046.91
2017-07-08T21:57:00.875Z,101048.95
2017-07-08T21:59:28.280Z,101047.87
2017-07-08T22:01:55.669Z,101055.81
2017-07-08T22:04:23.075Z,101056.19
2017-07-08T22:06:50.468Z,101051.73
2017-07-08T22:09:17.863Z,101059.12
2017-07-08T22:11:45.252Z,101061.14
2017-07-08T22:14:12.651Z,101064.39
2017-07-08T22:16:40.056Z,101062.89
2017-07-08T22:19:07.447Z,101064.67
2017-07-08T22:21:34.836Z,101067.73
2017-07-08T22:24:02.223Z,101062.81
2017-07-08T22:26:29.623Z,101057.77
2017-07-08T22:28:57.011Z,101059.08
2017-07-08T22:31:24.676Z,101053.89
2017-07-08T22:33:52.063Z,101049.78
2017-07-08T22:36:19.460Z,101042.84
2017-07-08T22:38:46.853Z,101036.48
2017-07-08T22:41:14.254Z,101028.91
2017-07-08T22:43:41.639Z,101034.97
2017-07-08T22:46:09.045Z,101039.58
2017-07-08T22:48:36.428Z,101041.50
2017-07-08T22:51:03.831Z,101048.40
2017-07-08T22:53:31.221Z,101047.15
2017-07-08T22:55:58.624Z,101047.64
2017-07-08T22:58:26.016Z,101051.05
2017-07-08T23:00:53.425Z,101039.62
2017-07-08T23:03:20.815Z,101047.44
2017-07-08T23:05:48.225Z,101036.51
2017-07-08T23:08:15.611Z,101046.44
2017-07-08T23:10:43.014Z,101036.83
2017-07-08T23:13:10.427Z,101031.33
2017-07-08T23:15:37.834Z,101027.14
2017-07-08T23:18:05.222Z,101025.73
2017-07-08T23:20:32.619Z,101025.47
2017-07-08T23:23:00.010Z,101027.77
2017-07-08T23:25:27.404Z,101020.22
2017-07-08T23:27:54.803Z,101018.45
2017-07-08T23:30:22.195Z,101019.80
2017-07-08T23:32:49.855Z,101018.58
2017-07-08T23:35:17.253Z,101012.39
2017-07-08T23:37:44.650Z,101010.47
2017-07-08T23:40:12.043Z,101005.58
2017-07-08T23:42:39.492Z,101000.73
2017-07-08T23:45:06.872Z,101006.63
2017-07-08T23:47:34.267Z,101007.98
2017-07-08T23:50:01.664Z,101003.29
2017-07-08T23:52:29.060Z,101002.83
2017-07-08T23:54:56.456Z,101005.91
2017-07-08T23:57:23.850Z,101003.23
2017-07-08T23:59:51.243Z,100999.63
